createdAt,value
2017-12-29T08:20:24.940Z,10.60
2017-12-29T08:22:51.728Z,8.60
2017-12-29T08:25:19.797Z,8.90
2017-12-29T08:27:50.343Z,6.80
2017-12-29T08:30:28.300Z,9.43
2017-12-29T08:33:01.185Z,7.70
2017-12-29T08:35:31.890Z,7.53
2017-12-29T08:38:04.286Z,5.97
2017-12-29T08:40:34.801Z,7.80
2017-12-29T08:43:03.496Z,13.60
2017-12-29T08:45:31.627Z,8.97
2017-12-29T08:47:58.499Z,7.40
2017-12-29T08:50:26.075Z,7.63
2017-12-29T08:52:57.253Z,6.80
2017-12-29T08:55:24.372Z,7.53
2017-12-29T08:57:56.976Z,11.60
2017-12-29T09:00:25.725Z,7.87
2017-12-29T09:02:55.336Z,8.10
2017-12-29T09:05:24.432Z,7.93
2017-12-29T09:07:56.386Z,7.60
2017-12-29T09:10:23.403Z,9.60
2017-12-29T09:12:57.723Z,8.03
2017-12-29T09:15:39.551Z,10.03
2017-12-29T09:18:08.690Z,8.50
2017-12-29T09:20:36.922Z,8.30
2017-12-29T09:23:13.972Z,6.33
2017-12-29T09:25:42.111Z,6.83
2017-12-29T09:28:11.522Z,10.17
2017-12-29T09:30:44.839Z,8.40
2017-12-29T09:33:12.158Z,8.90
2017-12-29T09:35:39.413Z,9.00
2017-12-29T09:38:06.839Z,7.60
2017-12-29T09:40:35.377Z,8.30
2017-12-29T09:43:04.041Z,7.87
2017-12-29T09:45:35.662Z,8.17
2017-12-29T09:48:03.530Z,6.87
2017-12-29T09:50:45.384Z,7.03
2017-12-29T09:53:12.577Z,7.87
2017-12-29T09:55:39.833Z,9.90
2017-12-29T09:58:14.890Z,7.30
2017-12-29T10:00:42.964Z,8.63
2017-12-29T10:03:10.667Z,8.73
2017-12-29T10:06:00.122Z,9.23
2017-12-29T10:08:27.257Z,7.17
2017-12-29T10:10:55.051Z,7.60
2017-12-29T10:13:21.958Z,10.00
2017-12-29T10:15:54.643Z,15.10
2017-12-29T10:18:21.798Z,6.60
2017-12-29T10:20:55.404Z,8.97
2017-12-29T10:23:22.765Z,8.07
2017-12-29T10:25:50.794Z,9.20
2017-12-29T10:28:17.610Z,7.77
2017-12-29T10:30:48.143Z,6.83
2017-12-29T10:33:15.131Z,7.30
2017-12-29T10:35:42.736Z,7.60
2017-12-29T10:38:10.770Z,11.03
2017-12-29T11:16:41.803Z,10.03
2017-12-29T11:19:09.366Z,9.10
2017-12-29T11:21:36.185Z,11.50
2017-12-29T11:24:04.239Z,6.73
2017-12-29T11:26:36.534Z,5.53
2017-12-29T11:29:03.866Z,9.97
2017-12-29T11:31:33.792Z,8.03
2017-12-29T11:34:01.008Z,4.83
2017-12-29T11:36:27.930Z,8.90
2017-12-29T11:39:05.746Z,7.07
2017-12-29T11:41:33.745Z,9.33
2017-12-29T11:44:00.722Z,7.33
2017-12-29T11:46:27.584Z,5.20
2017-12-29T11:48:56.544Z,8.70
2017-12-29T11:51:23.437Z,9.30
2017-12-29T11:53:50.702Z,13.77
2017-12-29T11:56:17.909Z,7.40
2017-12-29T11:58:45.876Z,10.30
2017-12-29T12:01:12.944Z,10.50
2017-12-29T12:03:40.043Z,7.83
2017-12-29T12:06:07.897Z,7.70
2017-12-29T12:08:36.135Z,5.30
2017-12-29T12:11:03.459Z,9.00
2017-12-29T12:13:32.905Z,8.90
2017-12-29T12:16:00.119Z,5.60
2017-12-29T12:18:27.886Z,7.40
2017-12-29T12:21:01.409Z,5.97
2017-12-29T12:23:29.807Z,8.70
2017-12-29T12:25:57.004Z,5.90
2017-12-29T12:28:24.011Z,10.90
2017-12-29T12:30:50.959Z,5.93
2017-12-29T12:33:18.425Z,13.27
2017-12-29T12:35:48.954Z,7.27
2017-12-29T12:38:16.604Z,12.73
2017-12-29T12:40:44.958Z,9.00
2017-12-29T12:43:12.083Z,7.50
2017-12-29T12:45:39.323Z,8.57
2017-12-29T12:48:08.102Z,7.40
2017-12-29T12:50:35.605Z,5.50
2017-12-29T12:53:08.555Z,7.37
2017-12-29T12:55:35.807Z,5.60
2017-12-29T12:58:05.516Z,11.87
2017-12-29T13:00:34.392Z,11.00
2017-12-29T13:03:12.419Z,10.23
2017-12-29T13:05:39.868Z,11.33
2017-12-29T13:08:17.699Z,14.27
2017-12-29T14:12:13.338Z,7.15
2017-12-29T14:14:41.645Z,5.20
2017-12-29T14:17:08.912Z,10.10
2017-12-29T14:19:37.310Z,8.60
2017-12-29T14:22:04.077Z,7.60
2017-12-29T14:24:41.646Z,10.07
2017-12-29T14:27:09.032Z,6.18
2017-12-29T14:29:36.064Z,9.70
2017-12-29T14:32:02.846Z,12.90
2017-12-29T14:34:31.643Z,8.50
2017-12-29T14:36:58.912Z,8.38
2017-12-29T14:39:27.098Z,11.65
2017-12-29T14:42:01.268Z,10.50
2017-12-29T14:44:30.946Z,7.43
2017-12-29T14:46:57.935Z,11.63
2017-12-29T14:49:24.817Z,8.82
2017-12-29T14:51:51.699Z,7.62
2017-12-29T14:54:19.830Z,9.65
2017-12-29T14:56:46.909Z,10.65
2017-12-29T14:59:13.934Z,8.82
2017-12-29T15:01:40.973Z,16.48
2017-12-29T15:04:07.934Z,11.95
2017-12-29T15:06:34.813Z,8.43
2017-12-29T15:09:01.756Z,8.82
2017-12-29T15:11:29.146Z,12.13
2017-12-29T15:13:55.954Z,8.95
2017-12-29T15:16:23.692Z,8.30
2017-12-29T15:18:50.510Z,11.65
2017-12-29T15:21:17.201Z,11.05
2017-12-29T15:23:44.009Z,8.15
2017-12-29T15:26:10.918Z,11.75
2017-12-29T15:28:38.392Z,6.50
2017-12-29T15:31:05.091Z,10.23
2017-12-29T15:33:32.138Z,10.15
2017-12-29T15:35:58.883Z,8.05
2017-12-29T15:38:25.667Z,10.52
2017-12-29T15:40:52.407Z,7.80
2017-12-29T15:43:19.409Z,9.00
2017-12-29T15:45:46.314Z,8.67
2017-12-29T15:48:13.596Z,10.15
2017-12-29T15:50:41.337Z,7.17
2017-12-29T15:53:09.368Z,7.83
2017-12-29T15:55:36.261Z,7.62
2017-12-29T15:58:03.387Z,9.52
2017-12-29T16:00:30.392Z,8.77
2017-12-29T16:02:57.228Z,10.18
2017-12-29T16:05:24.453Z,12.90
2017-12-29T16:07:51.444Z,6.97
2017-12-29T16:10:18.572Z,7.43
2017-12-29T16:12:45.369Z,8.82
2017-12-29T16:15:12.413Z,9.27
2017-12-29T16:17:40.011Z,10.30
2017-12-29T16:20:06.903Z,13.35
2017-12-29T16:22:34.175Z,12.63
2017-12-29T16:25:01.806Z,11.60
2017-12-29T16:27:28.883Z,8.20
2017-12-29T16:29:56.166Z,9.60
2017-12-29T16:32:23.319Z,11.27
2017-12-29T16:34:50.290Z,8.00
2017-12-29T16:37:17.343Z,15.45
2017-12-29T16:39:44.126Z,8.30
2017-12-29T16:42:10.944Z,13.73
2017-12-29T16:44:37.708Z,10.13
2017-12-29T16:47:05.023Z,12.13
2017-12-29T16:49:31.698Z,11.90
2017-12-29T16:51:59.825Z,13.55
2017-12-29T16:54:26.483Z,9.60
2017-12-29T16:56:53.428Z,9.60
2017-12-29T16:59:20.653Z,12.50
2017-12-29T17:01:47.618Z,11.40
2017-12-29T17:04:14.365Z,12.40
2017-12-29T17:06:43.170Z,6.80
2017-12-29T17:09:12.932Z,19.43
2017-12-29T17:11:40.893Z,6.27
2017-12-29T17:14:08.536Z,6.10
2017-12-29T17:19:24.466Z,10.37
2017-12-29T17:24:34.117Z,4.90
2017-12-29T17:27:02.193Z,4.77
2017-12-29T17:30:12.105Z,6.83
2017-12-29T17:32:55.981Z,8.00
2017-12-29T17:35:23.012Z,6.10
2017-12-29T17:37:49.750Z,5.27
2017-12-29T17:40:17.518Z,6.30
2017-12-29T17:42:44.842Z,5.97
2017-12-29T17:45:37.744Z,9.90
2017-12-29T17:48:05.272Z,8.50
2017-12-29T17:50:54.686Z,5.80
2017-12-29T17:56:04.437Z,6.37
2017-12-29T18:01:18.436Z,7.90
2017-12-29T18:03:45.243Z,7.67
2017-12-29T18:06:12.159Z,7.33
2017-12-29T18:08:39.813Z,9.87
2017-12-29T18:53:00.459Z,3.90
2017-12-29T18:55:29.643Z,5.40
2017-12-29T18:57:57.627Z,5.57
2017-12-29T19:00:35.061Z,4.40
2017-12-29T19:03:05.505Z,4.63
2017-12-29T19:05:32.259Z,4.80
2017-12-29T19:10:50.868Z,5.87
2017-12-29T19:13:28.589Z,8.37
2017-12-29T19:15:56.826Z,5.33
2017-12-29T19:18:34.877Z,8.90
2017-12-29T19:23:38.518Z,5.70
2017-12-29T19:26:05.285Z,4.10
2017-12-29T19:28:38.720Z,4.53
2017-12-29T19:31:05.755Z,7.57
2017-12-29T19:33:55.721Z,4.97
2017-12-29T19:39:16.539Z,7.40
2017-12-29T19:41:44.615Z,5.87
2017-12-29T19:44:11.670Z,4.73
2017-12-29T19:46:38.590Z,4.87
2017-12-29T19:49:08.946Z,4.80
2017-12-29T19:51:36.096Z,6.20
2017-12-29T19:54:05.177Z,6.33
2017-12-29T19:56:32.005Z,8.37
2017-12-29T19:58:58.913Z,5.80
2017-12-29T20:01:25.675Z,5.40
2017-12-29T20:03:52.655Z,5.20
2017-12-29T20:06:22.486Z,4.63
2017-12-29T20:08:54.000Z,6.53
2017-12-29T20:11:21.076Z,6.30
2017-12-29T20:16:21.810Z,6.10
2017-12-29T20:18:49.041Z,6.20
2017-12-29T20:21:16.007Z,10.43
2017-12-29T20:23:42.750Z,8.57
2017-12-29T20:26:09.489Z,6.43
2017-12-29T20:28:36.521Z,6.83
2017-12-29T20:31:03.277Z,6.83
2017-12-29T20:33:30.156Z,9.03
2017-12-29T20:35:58.826Z,7.80
2017-12-29T20:38:42.262Z,7.00
2017-12-29T20:41:16.236Z,6.37
2017-12-29T20:47:03.689Z,8.60
2017-12-29T20:49:30.519Z,10.00
2017-12-29T20:54:37.151Z,8.73
2017-12-29T20:57:03.884Z,10.33
2017-12-29T20:59:36.104Z,11.67
2017-12-29T21:02:03.736Z,17.60
2017-12-29T21:04:32.931Z,13.97
2017-12-29T21:07:13.906Z,12.37
2017-12-29T21:12:16.556Z,17.27
2017-12-29T21:14:57.651Z,20.27
2017-12-29T21:17:26.889Z,17.53
2017-12-29T21:19:54.042Z,22.63
2017-12-29T21:22:46.476Z,19.73
2017-12-29T21:25:25.591Z,18.37
2017-12-29T21:28:04.406Z,20.73
2017-12-29T21:30:34.341Z,17.90
2017-12-29T21:33:14.056Z,21.63
2017-12-29T21:35:40.791Z,20.80
2017-12-29T21:40:41.862Z,19.00
2017-12-29T21:43:09.997Z,24.40
2017-12-29T21:45:57.882Z,22.83
2017-12-29T21:48:25.911Z,20.20
2017-12-29T21:50:52.602Z,24.50
2017-12-29T21:53:20.538Z,17.50
2017-12-29T21:55:52.613Z,20.80
2017-12-29T22:00:57.279Z,15.23
2017-12-29T22:03:33.038Z,16.83
2017-12-29T22:06:05.925Z,18.60
2017-12-29T22:08:35.469Z,18.40
2017-12-29T22:11:02.424Z,12.70
2017-12-29T22:16:02.029Z,17.23
2017-12-29T22:18:29.634Z,20.43
2017-12-29T22:20:57.945Z,15.67
2017-12-29T22:23:27.241Z,16.83
2017-12-29T22:25:54.776Z,17.43
2017-12-29T22:28:21.912Z,17.07
2017-12-29T22:30:51.206Z,16.53
2017-12-29T22:36:49.760Z,12.10
2017-12-29T22:39:17.270Z,10.63
2017-12-29T22:41:44.366Z,11.70
2017-12-29T22:44:11.800Z,10.87
2017-12-29T22:46:39.317Z,13.07
2017-12-29T22:49:06.272Z,11.23
2017-12-29T22:51:33.427Z,12.43
2017-12-29T22:54:00.282Z,7.07
2017-12-29T22:56:28.637Z,12.90
2017-12-29T22:58:56.435Z,10.30
2017-12-29T23:01:24.358Z,8.70
2017-12-29T23:03:51.962Z,11.73
2017-12-29T23:06:19.559Z,8.37
2017-12-29T23:08:54.575Z,6.07
2017-12-29T23:11:34.349Z,12.23
2017-12-29T23:14:12.984Z,12.13
2017-12-29T23:16:47.399Z,11.07
2017-12-29T23:19:25.346Z,12.27
2017-12-29T23:21:53.330Z,7.60
2017-12-29T23:24:41.917Z,9.37
2017-12-29T23:29:43.030Z,8.77
2017-12-29T23:32:09.731Z,13.30
2017-12-29T23:34:38.047Z,12.53
2017-12-29T23:37:06.859Z,15.50
2017-12-29T23:39:35.162Z,8.87
2017-12-29T23:42:02.530Z,9.60
2017-12-29T23:44:29.587Z,13.90
2017-12-29T23:46:57.846Z,9.00
2017-12-29T23:49:24.625Z,10.43
2017-12-29T23:51:53.672Z,10.20
2017-12-29T23:54:24.783Z,11.83
2017-12-29T23:56:53.683Z,11.13
2017-12-29T23:59:23.932Z,14.47
